Time;durP1;ratioP1;P1;durP2;ratioP2;P2;SDS_P1;SDS_P2;PMS_P1;PMS_P2;Temp;Humidity;BMP_temperature;BMP_pressure;BME280_temperature;BME280_humidity;BME280_pressure;Samples;Min_cycle;Max_cycle;Signal;HPM_P1;HPM_P2
2023/07/14 00:01:26;;;;;;;7.60;4.18;;;16.00;99.90;;;;;;4975911;28;20096;-57
2023/07/14 00:03:52;;;;;;;4.25;3.60;;;16.00;99.90;;;;;;4968607;28;20023;-57
2023/07/14 00:06:18;;;;;;;6.15;4.25;;;16.00;99.90;;;;;;4967854;28;20583;-57
2023/07/14 00:08:45;;;;;;;4.22;3.40;;;15.90;99.90;;;;;;4968288;28;20149;-57
2023/07/14 00:11:21;;;;;;;5.00;3.70;;;16.00;99.90;;;;;;4966627;28;20030;-57
2023/07/14 00:13:48;;;;;;;5.63;3.60;;;16.00;99.90;;;;;;4968765;28;20094;-57
2023/07/14 00:16:19;;;;;;;4.57;3.33;;;16.00;99.90;;;;;;4968697;28;20042;-57
2023/07/14 00:18:46;;;;;;;3.92;3.10;;;16.00;99.90;;;;;;4976384;28;20031;-57
2023/07/14 00:21:25;;;;;;;5.10;3.40;;;16.00;99.90;;;;;;4967914;28;20045;-57
2023/07/14 00:23:59;;;;;;;4.93;3.73;;;15.90;99.90;;;;;;4970920;28;20035;-57
2023/07/14 00:26:26;;;;;;;6.22;3.47;;;15.90;99.90;;;;;;4972987;28;20061;-57
2023/07/14 00:28:52;;;;;;;5.25;3.33;;;15.90;99.90;;;;;;4976331;28;20057;-57
2023/07/14 00:31:20;;;;;;;6.60;3.80;;;15.90;99.90;;;;;;4967894;28;20035;-57
2023/07/14 00:33:49;;;;;;;4.32;3.55;;;15.90;99.90;;;;;;4967851;28;20118;-57
2023/07/14 00:36:17;;;;;;;4.78;3.78;;;15.80;99.90;;;;;;4968086;28;20023;-57
2023/07/14 00:38:43;;;;;;;3.72;3.33;;;15.80;99.90;;;;;;4999046;28;20038;-57
2023/07/14 00:41:19;;;;;;;3.72;3.35;;;15.80;99.90;;;;;;4975826;28;20031;-58
2023/07/14 00:43:45;;;;;;;4.25;3.55;;;15.80;99.90;;;;;;4976259;28;20113;-58
2023/07/14 00:46:30;;;;;;;5.25;3.55;;;15.70;99.90;;;;;;4980471;28;20034;-58
2023/07/14 00:49:04;;;;;;;6.20;3.72;;;15.70;99.90;;;;;;4968423;28;20035;-58
2023/07/14 00:51:32;;;;;;;5.93;4.20;;;15.70;99.90;;;;;;4983188;28;20495;-58
2023/07/14 00:53:58;;;;;;;7.10;3.90;;;15.70;99.90;;;;;;4970196;28;20503;-58
2023/07/14 00:56:23;;;;;;;7.18;4.07;;;15.70;99.90;;;;;;4972636;28;20031;-57
2023/07/14 00:58:49;;;;;;;4.82;3.33;;;15.70;99.90;;;;;;4974618;28;20022;-58
2023/07/14 01:01:23;;;;;;;4.40;3.67;;;15.70;99.90;;;;;;4967420;28;20549;-58
2023/07/14 01:03:55;;;;;;;6.50;3.90;;;15.70;99.90;;;;;;4975855;28;20047;-58
2023/07/14 01:06:26;;;;;;;5.32;4.13;;;15.60;99.90;;;;;;4975791;28;20076;-58
2023/07/14 01:09:20;;;;;;;6.47;4.10;;;15.60;99.90;;;;;;4975692;28;20475;-58
2023/07/14 01:11:50;;;;;;;7.82;4.70;;;15.60;99.90;;;;;;4967082;28;20042;-57
2023/07/14 01:14:21;;;;;;;8.18;4.93;;;15.60;99.90;;;;;;4979178;28;20029;-57
2023/07/14 01:16:51;;;;;;;7.57;4.43;;;15.60;99.90;;;;;;4985344;28;20034;-58
2023/07/14 01:19:36;;;;;;;5.82;4.03;;;15.50;99.90;;;;;;4969885;28;20081;-58
2023/07/14 01:22:27;;;;;;;10.52;4.38;;;15.40;99.90;;;;;;4997292;28;20395;-57
2023/07/14 01:25:05;;;;;;;5.60;4.00;;;15.40;99.90;;;;;;4980027;28;20015;-58
2023/07/14 01:27:31;;;;;;;7.55;4.57;;;15.40;99.90;;;;;;5044658;28;20113;-58
2023/07/14 01:29:56;;;;;;;9.15;4.13;;;15.40;99.90;;;;;;4989593;28;20118;-57
2023/07/14 01:32:24;;;;;;;6.38;4.28;;;15.40;99.90;;;;;;4998465;28;20168;-57
2023/07/14 01:34:50;;;;;;;6.32;4.22;;;15.30;99.90;;;;;;4980746;28;20030;-57
2023/07/14 01:37:19;;;;;;;5.15;4.07;;;15.30;99.90;;;;;;4969994;28;20110;-57
2023/07/14 01:39:47;;;;;;;5.43;4.15;;;15.30;99.90;;;;;;4970927;28;20023;-57
2023/07/14 01:42:13;;;;;;;5.28;4.30;;;15.20;99.90;;;;;;4982800;28;20547;-57
2023/07/14 01:44:39;;;;;;;9.82;5.10;;;15.10;99.90;;;;;;5027638;28;20435;-57
2023/07/14 01:47:07;;;;;;;7.07;4.60;;;15.10;99.90;;;;;;5013563;28;20027;-57
2023/07/14 01:49:46;;;;;;;6.05;5.05;;;15.00;99.90;;;;;;5028636;28;20038;-57
2023/07/14 01:52:16;;;;;;;6.20;4.20;;;15.00;99.90;;;;;;5031807;28;20039;-57
2023/07/14 01:54:51;;;;;;;6.83;4.30;;;15.00;99.90;;;;;;5039913;28;20484;-57
2023/07/14 01:57:20;;;;;;;5.55;4.97;;;15.00;99.90;;;;;;5021279;28;20027;-57
2023/07/14 01:59:50;;;;;;;6.45;4.13;;;14.90;99.90;;;;;;4983136;28;20019;-57
2023/07/14 02:02:25;;;;;;;7.00;4.72;;;14.90;99.90;;;;;;4984294;28;20019;-57
2023/07/14 02:04:51;;;;;;;7.03;4.70;;;14.90;99.90;;;;;;4976900;28;20022;-56
2023/07/14 02:07:18;;;;;;;7.53;5.43;;;14.80;99.90;;;;;;4980835;28;20022;-57
2023/07/14 02:09:44;;;;;;;7.35;4.97;;;14.80;99.90;;;;;;4982808;28;20014;-56
2023/07/14 02:12:25;;;;;;;6.63;4.63;;;14.70;99.90;;;;;;4972646;28;20062;-56
2023/07/14 02:14:54;;;;;;;;;;;14.70;99.90;;;;;;5036461;28;20058;-56
2023/07/14 02:17:33;;;;;;;7.28;4.93;;;14.80;99.90;;;;;;4990469;28;19940;-56
2023/07/14 02:20:10;;;;;;;9.38;5.25;;;14.80;99.90;;;;;;4981050;28;20075;-56
2023/07/14 02:22:37;;;;;;;8.82;5.75;;;14.70;99.90;;;;;;4981395;28;20523;-56
2023/07/14 02:25:07;;;;;;;8.10;5.22;;;14.80;99.90;;;;;;4980916;28;20026;-58
2023/07/14 02:27:32;;;;;;;7.80;5.28;;;14.80;99.90;;;;;;4981200;28;20387;-57
2023/07/14 02:30:09;;;;;;;10.30;5.40;;;14.70;99.90;;;;;;4972237;28;20026;-57
2023/07/14 02:32:40;;;;;;;11.85;4.72;;;14.80;99.90;;;;;;4981233;28;20035;-57
2023/07/14 02:35:16;;;;;;;7.05;4.68;;;14.70;99.90;;;;;;4965370;28;20019;-57
2023/07/14 02:38:06;;;;;;;6.53;4.80;;;14.70;99.90;;;;;;4980754;28;20026;-57
2023/07/14 02:40:52;;;;;;;11.57;5.43;;;14.70;99.90;;;;;;4969524;28;20110;-57
2023/07/14 02:43:21;;;;;;;10.30;5.07;;;14.70;99.90;;;;;;4976448;28;20600;-56
2023/07/14 02:45:58;;;;;;;8.20;5.38;;;14.60;99.90;;;;;;4980790;28;20023;-56
2023/07/14 02:48:43;;;;;;;8.57;5.35;;;14.60;99.90;;;;;;4987613;28;20480;-56
2023/07/14 02:51:10;;;;;;;10.13;6.10;;;14.50;99.90;;;;;;4961385;28;20488;-56
2023/07/14 02:53:36;;;;;;;8.30;4.85;;;14.50;99.90;;;;;;4969515;28;20503;-57
2023/07/14 02:56:02;;;;;;;6.13;5.20;;;14.40;99.90;;;;;;4969470;28;20035;-56
2023/07/14 02:58:27;;;;;;;6.35;5.18;;;14.40;99.90;;;;;;4969478;28;20435;-58
2023/07/14 03:00:53;;;;;;;10.05;5.63;;;14.40;99.90;;;;;;4970974;28;20110;-58
2023/07/14 03:03:19;;;;;;;7.18;5.40;;;14.40;99.90;;;;;;4988818;28;20049;-57
2023/07/14 03:05:44;;;;;;;6.63;5.35;;;14.40;99.90;;;;;;4978953;28;20037;-57
2023/07/14 03:08:15;;;;;;;13.77;6.28;;;14.40;99.90;;;;;;4979187;28;20014;-57
2023/07/14 03:10:46;;;;;;;7.85;5.22;;;14.40;99.90;;;;;;4988237;28;20022;-57
2023/07/14 03:13:12;;;;;;;;;;;14.40;99.90;;;;;;4976312;28;20391;-57
2023/07/14 03:15:38;;;;;;;11.75;5.88;;;14.40;99.90;;;;;;4967277;28;20440;-57
2023/07/14 03:18:04;;;;;;;9.98;6.25;;;14.40;99.90;;;;;;4971860;28;20026;-57
2023/07/14 03:20:30;;;;;;;6.65;5.50;;;14.40;99.90;;;;;;4973636;28;20054;-57
2023/07/14 03:22:55;;;;;;;9.90;6.07;;;14.30;99.90;;;;;;4970014;28;20074;-57
2023/07/14 03:25:21;;;;;;;10.70;5.10;;;14.30;99.90;;;;;;4983145;28;20095;-56
2023/07/14 03:27:47;;;;;;;7.93;4.47;;;14.30;99.90;;;;;;4976701;28;20030;-56
2023/07/14 03:30:13;;;;;;;8.07;5.45;;;14.30;99.90;;;;;;4976804;28;20440;-56
2023/07/14 03:32:39;;;;;;;7.97;4.95;;;14.20;99.90;;;;;;4976386;28;20033;-57
2023/07/14 03:35:05;;;;;;;8.73;5.22;;;14.20;99.90;;;;;;4985051;28;20015;-57
2023/07/14 03:37:31;;;;;;;6.50;5.03;;;14.20;99.90;;;;;;4982883;28;20109;-58
2023/07/14 03:39:57;;;;;;;12.93;6.15;;;14.20;99.90;;;;;;4971701;28;20034;-57
2023/07/14 03:42:22;;;;;;;7.28;5.00;;;14.20;99.90;;;;;;4986625;28;20101;-57
2023/07/14 03:44:48;;;;;;;7.00;5.30;;;14.20;99.90;;;;;;4971672;28;20022;-57
2023/07/14 03:47:14;;;;;;;6.05;5.15;;;14.20;99.90;;;;;;4968807;28;20023;-57
2023/07/14 03:49:39;;;;;;;10.70;5.90;;;14.20;99.90;;;;;;4968519;28;20037;-57
2023/07/14 03:52:05;;;;;;;6.20;4.60;;;14.20;99.90;;;;;;4978743;28;20441;-63
2023/07/14 03:54:32;;;;;;;5.60;4.95;;;14.20;99.90;;;;;;4987530;28;20018;-61
2023/07/14 03:57:00;;;;;;;10.05;5.03;;;14.20;99.90;;;;;;4987449;28;20109;-61
2023/07/14 03:59:27;;;;;;;9.00;5.60;;;14.20;99.90;;;;;;4987557;28;20011;-62
2023/07/14 04:01:53;;;;;;;5.80;4.40;;;14.20;99.90;;;;;;4987203;28;20038;-61
2023/07/14 04:04:20;;;;;;;5.78;4.57;;;14.20;99.90;;;;;;4986134;28;20026;-60
2023/07/14 04:06:45;;;;;;;9.18;5.50;;;14.20;99.90;;;;;;4987738;28;20027;-61
2023/07/14 04:09:11;;;;;;;7.72;5.18;;;14.20;99.90;;;;;;4978343;28;20022;-60
2023/07/14 04:11:37;;;;;;;8.80;4.50;;;14.20;99.90;;;;;;4972327;28;20110;-62
2023/07/14 04:14:05;;;;;;;8.93;4.78;;;14.30;99.90;;;;;;4986703;28;20046;-63
2023/07/14 04:16:31;;;;;;;7.82;5.00;;;14.20;99.90;;;;;;4987376;28;20014;-62
2023/07/14 04:18:56;;;;;;;6.03;5.22;;;14.30;99.90;;;;;;4987574;28;20032;-61
2023/07/14 04:21:27;;;;;;;11.98;4.95;;;14.30;99.90;;;;;;4987265;28;20529;-63
2023/07/14 04:23:53;;;;;;;7.10;4.85;;;14.30;99.90;;;;;;4986043;28;20049;-63
2023/07/14 04:26:19;;;;;;;7.78;4.88;;;14.30;99.90;;;;;;4987378;28;20022;-62
2023/07/14 04:28:44;;;;;;;6.90;4.80;;;14.30;99.90;;;;;;4987342;28;20561;-62
2023/07/14 04:31:10;;;;;;;6.28;4.75;;;14.40;99.90;;;;;;4978448;28;20023;-62
2023/07/14 04:33:35;;;;;;;9.57;5.22;;;14.40;99.90;;;;;;4972287;28;20065;-62
2023/07/14 04:36:01;;;;;;;6.72;4.40;;;14.40;99.90;;;;;;4982439;28;20464;-61
2023/07/14 04:38:26;;;;;;;7.95;4.47;;;14.50;99.90;;;;;;4973328;28;20023;-61
2023/07/14 04:40:52;;;;;;;9.23;4.80;;;14.50;99.90;;;;;;4978767;28;20030;-62
2023/07/14 04:43:18;;;;;;;11.23;4.65;;;14.50;99.90;;;;;;4982945;28;20102;-62
2023/07/14 04:45:45;;;;;;;7.60;4.72;;;14.60;99.90;;;;;;4975539;28;20023;-61
2023/07/14 04:48:16;;;;;;;7.85;5.13;;;14.60;99.90;;;;;;4970709;28;20027;-61
2023/07/14 04:50:44;;;;;;;7.72;4.22;;;14.70;99.90;;;;;;4986942;28;20379;-62
2023/07/14 04:53:10;;;;;;;7.03;4.20;;;14.70;99.90;;;;;;4978133;28;20079;-61
2023/07/14 04:55:40;;;;;;;5.53;4.63;;;14.70;99.90;;;;;;4990491;28;20498;-62
2023/07/14 04:58:07;;;;;;;6.13;4.28;;;14.80;99.90;;;;;;4985608;28;20067;-62
2023/07/14 05:00:34;;;;;;;7.15;4.10;;;14.90;99.90;;;;;;4988715;28;20023;-62
2023/07/14 05:02:59;;;;;;;10.40;4.53;;;14.90;99.90;;;;;;4989794;28;20031;-62
2023/07/14 05:05:26;;;;;;;5.93;4.50;;;15.00;99.90;;;;;;4975991;28;20027;-62
2023/07/14 05:07:52;;;;;;;5.88;4.15;;;15.00;99.90;;;;;;4979464;28;20101;-62
2023/07/14 05:10:20;;;;;;;8.25;4.40;;;15.10;99.90;;;;;;4989871;28;20164;-62
2023/07/14 05:12:51;;;;;;;5.63;3.90;;;15.20;99.90;;;;;;4989567;28;20471;-61
2023/07/14 05:15:16;;;;;;;;;;;15.20;99.90;;;;;;4990511;28;20023;-62
2023/07/14 05:17:42;;;;;;;6.47;4.63;;;15.30;99.90;;;;;;4990284;28;19906;-62
2023/07/14 05:20:12;;;;;;;7.47;4.47;;;15.30;99.90;;;;;;4974073;28;20034;-62
2023/07/14 05:22:40;;;;;;;5.50;3.95;;;15.40;99.90;;;;;;4989538;28;20029;-61
2023/07/14 05:25:06;;;;;;;7.60;4.35;;;15.50;99.90;;;;;;4989880;28;20038;-61
2023/07/14 05:27:32;;;;;;;5.10;4.00;;;15.50;99.90;;;;;;4990028;28;20038;-62
2023/07/14 05:29:57;;;;;;;5.82;4.13;;;15.60;99.90;;;;;;4989841;28;20493;-61
2023/07/14 05:32:24;;;;;;;5.20;4.18;;;15.60;99.90;;;;;;4989200;28;20023;-61
2023/07/14 05:34:50;;;;;;;11.65;4.60;;;15.70;99.90;;;;;;4989328;28;20487;-61
2023/07/14 05:37:16;;;;;;;7.82;4.15;;;15.80;99.90;;;;;;4989578;28;20492;-61
2023/07/14 05:39:42;;;;;;;11.35;4.75;;;15.80;99.90;;;;;;4989533;28;20044;-61
2023/07/14 05:42:08;;;;;;;6.60;4.90;;;15.90;99.90;;;;;;4988936;28;20054;-61
2023/07/14 05:44:33;;;;;;;13.50;5.05;;;16.00;99.90;;;;;;4988018;28;20025;-61
2023/07/14 05:46:59;;;;;;;12.02;5.68;;;16.10;99.90;;;;;;4989183;28;20041;-61
2023/07/14 05:49:25;;;;;;;10.15;4.90;;;16.10;99.90;;;;;;4989306;28;20033;-61
2023/07/14 05:51:51;;;;;;;7.38;4.75;;;16.10;99.90;;;;;;4988421;28;20026;-61
2023/07/14 05:54:16;;;;;;;9.27;5.22;;;16.20;99.90;;;;;;4989287;28;20423;-61
2023/07/14 05:56:42;;;;;;;10.02;4.78;;;16.30;99.90;;;;;;4989479;28;20025;-60
2023/07/14 05:59:07;;;;;;;9.15;5.00;;;16.30;99.90;;;;;;4989576;28;20018;-60
2023/07/14 06:01:33;;;;;;;10.60;5.65;;;16.40;99.90;;;;;;4988893;28;20037;-60
2023/07/14 06:03:59;;;;;;;8.13;5.22;;;16.40;99.90;;;;;;4987117;28;20034;-60
2023/07/14 06:06:24;;;;;;;13.90;5.65;;;16.40;99.90;;;;;;4988715;28;20058;-60
2023/07/14 06:08:50;;;;;;;7.95;4.95;;;16.50;99.90;;;;;;4989148;28;20460;-60
2023/07/14 06:11:15;;;;;;;9.57;4.57;;;16.60;99.90;;;;;;4988468;28;20387;-60
2023/07/14 06:13:41;;;;;;;10.57;5.43;;;16.60;99.90;;;;;;4989315;28;20023;-60
2023/07/14 06:16:07;;;;;;;6.72;4.50;;;16.60;99.90;;;;;;4989254;28;20026;-60
2023/07/14 06:18:32;;;;;;;11.10;4.15;;;16.70;99.90;;;;;;4988695;28;20019;-60
2023/07/14 06:20:58;;;;;;;6.22;4.22;;;16.80;99.90;;;;;;4988658;28;20122;-60
2023/07/14 06:23:27;;;;;;;7.32;4.32;;;16.80;99.90;;;;;;4988834;28;20025;-61
2023/07/14 06:25:54;;;;;;;14.70;5.43;;;16.90;99.90;;;;;;4988808;28;20087;-60
2023/07/14 06:28:20;;;;;;;9.02;5.50;;;16.90;99.90;;;;;;4988684;28;20026;-60
2023/07/14 06:30:46;;;;;;;13.88;5.47;;;17.00;99.90;;;;;;4988468;28;20050;-61
2023/07/14 06:33:12;;;;;;;10.88;5.10;;;17.00;99.90;;;;;;4988466;28;20072;-60
2023/07/14 06:35:39;;;;;;;7.95;4.65;;;17.00;99.90;;;;;;4987726;28;20018;-60
2023/07/14 06:38:06;;;;;;;11.38;5.18;;;17.10;99.90;;;;;;4988823;28;20115;-60
2023/07/14 06:40:31;;;;;;;13.77;5.15;;;17.20;99.90;;;;;;4988723;28;20036;-60
2023/07/14 06:43:00;;;;;;;10.25;5.30;;;17.30;99.90;;;;;;4984122;28;20480;-60
2023/07/14 06:45:27;;;;;;;11.57;5.28;;;17.30;99.90;;;;;;4988561;28;20023;-61
2023/07/14 06:47:52;;;;;;;13.55;5.85;;;17.40;99.90;;;;;;4987233;28;20529;-60
2023/07/14 06:50:18;;;;;;;7.70;4.65;;;17.50;99.90;;;;;;4988449;28;20054;-60
2023/07/14 06:52:44;;;;;;;11.98;7.05;;;17.60;99.90;;;;;;4988076;28;20031;-60
2023/07/14 06:55:10;;;;;;;9.77;6.10;;;17.70;99.90;;;;;;4988288;28;20031;-60
2023/07/14 06:57:35;;;;;;;15.00;8.40;;;17.80;99.90;;;;;;4988548;28;20015;-60
2023/07/14 07:00:01;;;;;;;8.50;6.00;;;17.90;99.90;;;;;;4988356;28;20391;-60
2023/07/14 07:02:27;;;;;;;13.88;6.70;;;17.90;99.90;;;;;;4986576;28;20105;-60
2023/07/14 07:04:52;;;;;;;9.80;5.43;;;18.00;99.90;;;;;;4988196;28;20134;-61
2023/07/14 07:07:18;;;;;;;11.02;5.25;;;18.10;99.90;;;;;;5012697;28;20018;-60
2023/07/14 07:09:43;;;;;;;8.25;5.30;;;18.20;99.90;;;;;;4988126;28;20023;-60
2023/07/14 07:12:09;;;;;;;8.73;5.10;;;18.30;99.90;;;;;;4987707;28;20511;-60
2023/07/14 07:14:35;;;;;;;10.25;6.35;;;18.40;99.90;;;;;;4981480;28;20077;-60
2023/07/14 07:17:01;;;;;;;9.15;4.32;;;18.40;99.90;;;;;;4985352;28;20035;-60
2023/07/14 07:19:26;;;;;;;9.00;5.00;;;18.50;99.90;;;;;;4988079;28;20471;-60
2023/07/14 07:21:54;;;;;;;8.40;4.75;;;18.70;99.90;;;;;;4987814;28;20023;-61
2023/07/14 07:24:20;;;;;;;10.98;5.75;;;18.80;99.90;;;;;;4988205;28;20034;-61
2023/07/14 07:26:45;;;;;;;8.70;4.63;;;19.00;99.90;;;;;;4988188;28;20548;-61
2023/07/14 07:29:11;;;;;;;9.02;5.13;;;19.00;99.90;;;;;;4986837;28;20518;-61
2023/07/14 07:31:36;;;;;;;6.97;4.55;;;19.10;99.90;;;;;;4986211;28;20407;-60
2023/07/14 07:34:03;;;;;;;13.75;5.47;;;19.20;99.90;;;;;;4987794;28;20025;-61
2023/07/14 07:36:29;;;;;;;5.18;3.90;;;19.30;99.90;;;;;;4987941;28;20014;-60
2023/07/14 07:38:54;;;;;;;7.72;3.97;;;19.40;99.90;;;;;;4987968;28;20026;-61
2023/07/14 07:41:24;;;;;;;9.00;4.80;;;19.60;99.90;;;;;;4987479;28;20101;-60
2023/07/14 07:43:50;;;;;;;9.90;4.70;;;19.60;99.90;;;;;;4987971;28;20044;-60
2023/07/14 07:46:15;;;;;;;9.32;5.07;;;19.70;99.90;;;;;;4987950;28;20030;-60
2023/07/14 07:48:45;;;;;;;7.60;4.55;;;19.90;99.90;;;;;;4981837;28;20031;-60
2023/07/14 07:51:10;;;;;;;7.88;4.45;;;20.10;99.90;;;;;;4985688;28;20042;-60
2023/07/14 07:53:36;;;;;;;8.98;4.45;;;20.20;99.90;;;;;;4987674;28;20026;-60
2023/07/14 07:56:02;;;;;;;13.57;4.07;;;20.30;99.90;;;;;;4987449;28;20541;-60
2023/07/14 07:58:28;;;;;;;6.00;4.10;;;20.40;99.90;;;;;;4987679;28;20422;-60
2023/07/14 08:00:56;;;;;;;6.43;4.10;;;20.50;99.90;;;;;;4987491;28;20038;-60
2023/07/14 08:03:22;;;;;;;6.55;3.55;;;20.70;99.90;;;;;;4987514;28;20475;-60
2023/07/14 08:05:48;;;;;;;7.20;4.40;;;21.00;99.90;;;;;;4987466;28;20053;-60
2023/07/14 08:08:13;;;;;;;8.23;4.60;;;21.10;99.90;;;;;;4985992;28;20054;-60
2023/07/14 08:10:42;;;;;;;6.95;4.05;;;21.40;99.90;;;;;;4986871;28;20018;-60
2023/07/14 08:13:11;;;;;;;6.05;3.55;;;21.60;99.90;;;;;;4986880;28;20034;-60
2023/07/14 08:15:37;;;;;;;9.23;4.63;;;21.90;99.90;;;;;;4987034;28;20030;-60
2023/07/14 08:18:04;;;;;;;7.80;4.22;;;21.90;99.90;;;;;;4965829;28;20150;-60
2023/07/14 08:20:30;;;;;;;6.50;3.45;;;22.20;98.40;;;;;;4979961;28;20392;-60
2023/07/14 08:22:56;;;;;;;4.47;3.30;;;22.60;98.10;;;;;;4985057;28;20034;-60
2023/07/14 08:25:22;;;;;;;9.55;3.70;;;23.10;97.30;;;;;;4986869;28;20342;-61
2023/07/14 08:27:47;;;;;;;4.97;2.40;;;24.00;96.40;;;;;;4985954;28;20029;-61
2023/07/14 08:30:13;;;;;;;3.30;2.55;;;25.40;94.20;;;;;;4986833;28;20030;-60
2023/07/14 08:32:39;;;;;;;4.03;2.65;;;26.40;90.80;;;;;;4978521;28;20022;-60
2023/07/14 08:35:05;;;;;;;5.95;3.15;;;27.20;82.10;;;;;;4977950;28;20066;-61
2023/07/14 08:37:30;;;;;;;5.68;2.67;;;27.60;78.30;;;;;;5003462;28;20386;-61
2023/07/14 08:39:56;;;;;;;5.93;2.47;;;27.80;77.10;;;;;;4980870;28;20057;-61
2023/07/14 08:42:42;;;;;;;4.13;2.30;;;28.20;79.10;;;;;;5024467;28;20043;-61
2023/07/14 08:45:29;;;;;;;3.42;2.63;;;29.00;76.30;;;;;;4984994;28;20025;-60
2023/07/14 08:48:21;;;;;;;3.13;2.17;;;30.30;74.10;;;;;;4986903;28;20027;-60
2023/07/14 08:50:51;;;;;;;6.15;2.38;;;30.80;71.90;;;;;;4972483;28;20262;-60
2023/07/14 08:53:23;;;;;;;5.80;2.42;;;30.80;68.80;;;;;;4985963;28;20030;-61
2023/07/14 08:55:50;;;;;;;5.55;2.75;;;30.80;66.90;;;;;;4986941;28;20091;-61
2023/07/14 08:58:24;;;;;;;3.95;2.35;;;31.10;65.40;;;;;;4986687;28;20042;-60
2023/07/14 09:00:49;;;;;;;3.75;2.10;;;30.90;64.40;;;;;;4978907;28;20431;-60
2023/07/14 09:03:24;;;;;;;5.20;2.50;;;31.40;64.80;;;;;;4970410;28;20037;-61
2023/07/14 09:05:55;;;;;;;4.78;2.25;;;32.00;62.90;;;;;;4980034;28;20023;-60
2023/07/14 09:08:29;;;;;;;2.25;1.95;;;32.50;63.60;;;;;;4978356;28;20034;-61
2023/07/14 09:11:00;;;;;;;5.97;2.13;;;33.10;58.50;;;;;;4979023;28;20023;-61
2023/07/14 09:13:39;;;;;;;4.10;2.17;;;32.40;60.10;;;;;;4959734;28;20023;-61
2023/07/14 09:16:08;;;;;;;3.88;2.35;;;33.00;59.90;;;;;;4975269;28;20023;-61
2023/07/14 09:18:53;;;;;;;3.63;1.90;;;33.40;58.10;;;;;;4979748;28;20026;-61
2023/07/14 09:21:29;;;;;;;4.90;2.05;;;33.20;57.80;;;;;;4986382;28;20163;-61
2023/07/14 09:24:22;;;;;;;3.60;2.30;;;33.10;59.70;;;;;;4986771;28;20030;-61
2023/07/14 09:26:56;;;;;;;4.30;2.20;;;32.80;60.10;;;;;;4980373;28;20025;-61
2023/07/14 09:29:33;;;;;;;4.80;2.60;;;33.80;57.30;;;;;;4978128;28;20483;-61
2023/07/14 09:32:01;;;;;;;3.95;1.95;;;33.50;56.50;;;;;;4977892;28;20114;-61
2023/07/14 09:34:39;;;;;;;3.60;2.30;;;32.70;57.10;;;;;;4962728;28;20024;-60
2023/07/14 09:37:20;;;;;;;3.30;2.20;;;33.20;60.10;;;;;;5001070;28;20414;-61
2023/07/14 09:39:48;;;;;;;3.33;2.15;;;33.40;54.60;;;;;;4981865;28;20015;-61
2023/07/14 09:42:25;;;;;;;7.35;1.95;;;33.40;57.20;;;;;;4986332;28;20026;-61
2023/07/14 09:44:51;;;;;;;3.40;1.90;;;34.40;55.60;;;;;;4985305;28;20045;-60
2023/07/14 09:47:19;;;;;;;5.10;2.35;;;35.40;56.00;;;;;;4989629;28;20476;-61
2023/07/14 09:49:48;;;;;;;4.70;2.57;;;35.20;53.70;;;;;;4981704;28;20026;-61
2023/07/14 09:52:18;;;;;;;;;;;34.20;52.60;;;;;;4989155;28;20034;-61
2023/07/14 09:54:57;;;;;;;4.20;2.03;;;34.00;53.10;;;;;;4989196;28;19959;-62
2023/07/14 09:57:34;;;;;;;4.38;2.55;;;34.00;54.70;;;;;;4985933;28;20030;-61
2023/07/14 10:00:13;;;;;;;4.45;1.90;;;35.00;54.30;;;;;;4977896;28;20015;-61
2023/07/14 10:02:40;;;;;;;3.58;1.85;;;34.50;53.40;;;;;;4988790;28;20018;-62
2023/07/14 10:05:34;;;;;;;3.67;1.92;;;34.00;52.30;;;;;;4989109;28;20088;-61
2023/07/14 10:08:02;;;;;;;5.38;2.22;;;33.90;52.90;;;;;;4989105;28;20026;-61
2023/07/14 10:10:30;;;;;;;3.33;1.90;;;34.10;51.80;;;;;;4988898;28;20092;-61
2023/07/14 10:12:56;;;;;;;4.47;2.05;;;33.00;53.10;;;;;;4988699;28;20094;-61
2023/07/14 10:15:30;;;;;;;6.68;2.40;;;33.10;53.00;;;;;;4988450;28;20022;-61
2023/07/14 10:17:58;;;;;;;2.95;2.00;;;32.30;54.50;;;;;;4988019;28;20492;-61
2023/07/14 10:20:24;;;;;;;3.53;2.03;;;32.90;54.10;;;;;;4987575;28;20041;-61
2023/07/14 10:22:53;;;;;;;3.83;2.10;;;33.40;54.90;;;;;;4986899;28;20476;-61
2023/07/14 10:25:21;;;;;;;5.45;2.22;;;33.80;54.90;;;;;;4979348;28;20038;-61
2023/07/14 10:28:06;;;;;;;3.90;2.22;;;34.60;54.30;;;;;;4984680;28;20037;-61
2023/07/14 10:30:36;;;;;;;4.53;1.90;;;35.70;51.20;;;;;;4985609;28;20117;-61
2023/07/14 10:33:03;;;;;;;7.22;2.45;;;35.70;52.70;;;;;;4986909;28;20475;-61
2023/07/14 10:35:31;;;;;;;3.92;1.92;;;35.20;50.20;;;;;;4988212;28;20019;-61
2023/07/14 10:38:00;;;;;;;3.40;1.98;;;35.90;52.30;;;;;;4986070;28;20028;-61
2023/07/14 10:40:35;;;;;;;4.85;1.98;;;35.50;50.50;;;;;;4988701;28;20076;-62
2023/07/14 10:43:14;;;;;;;4.82;1.90;;;35.00;51.00;;;;;;4989810;28;20035;-62
2023/07/14 10:45:44;;;;;;;6.57;2.20;;;34.80;52.30;;;;;;4984304;28;20018;-62
2023/07/14 10:48:30;;;;;;;5.55;3.63;;;33.40;53.20;;;;;;4988358;28;20102;-61
2023/07/14 10:51:03;;;;;;;4.57;2.65;;;32.70;52.80;;;;;;4987384;28;20544;-60
2023/07/14 10:53:36;;;;;;;2.40;2.15;;;32.80;51.90;;;;;;4987190;28;20113;-61
2023/07/14 10:56:19;;;;;;;3.25;1.95;;;32.80;52.70;;;;;;4988147;28;20025;-60
2023/07/14 10:58:55;;;;;;;3.38;2.30;;;33.30;52.80;;;;;;4988188;28;20033;-61
2023/07/14 11:01:36;;;;;;;3.35;2.30;;;33.10;52.40;;;;;;4988004;28;20105;-61
2023/07/14 11:04:28;;;;;;;3.28;2.10;;;33.50;52.70;;;;;;4988112;28;20491;-61
2023/07/14 11:06:55;;;;;;;4.00;1.98;;;34.90;52.20;;;;;;4987833;28;20072;-61
2023/07/14 11:09:20;;;;;;;3.97;2.08;;;34.80;52.70;;;;;;4979844;28;20518;-61
2023/07/14 11:12:18;;;;;;;2.60;1.98;;;33.70;54.40;;;;;;4987687;28;20164;-61
2023/07/14 11:15:03;;;;;;;4.03;2.40;;;32.40;52.80;;;;;;4988483;28;20093;-61
2023/07/14 11:17:39;;;;;;;3.28;1.98;;;32.40;55.50;;;;;;4988199;28;20526;-61
2023/07/14 11:20:12;;;;;;;3.30;1.92;;;32.80;54.10;;;;;;4988323;28;20102;-61
2023/07/14 11:23:05;;;;;;;2.78;2.33;;;32.90;52.60;;;;;;4987918;28;20014;-61
2023/07/14 11:25:42;;;;;;;4.88;2.13;;;32.50;53.10;;;;;;4988273;28;20022;-60
2023/07/14 11:28:40;;;;;;;3.80;2.08;;;32.70;52.30;;;;;;4987457;28;20125;-61
2023/07/14 11:31:19;;;;;;;2.72;2.45;;;33.20;51.30;;;;;;4987478;28;20109;-62
2023/07/14 11:34:09;;;;;;;4.00;2.00;;;33.40;52.40;;;;;;4982703;28;20068;-62
2023/07/14 11:36:53;;;;;;;4.40;2.25;;;33.90;54.10;;;;;;4973206;28;20188;-62
2023/07/14 11:39:37;;;;;;;2.30;2.00;;;34.80;50.90;;;;;;4986661;28;20483;-62
2023/07/14 11:42:03;;;;;;;5.38;1.95;;;35.30;50.60;;;;;;4985536;28;20121;-62
2023/07/14 11:44:29;;;;;;;6.93;2.67;;;35.90;50.90;;;;;;4978371;28;20034;-63
2023/07/14 11:46:55;;;;;;;3.28;2.17;;;35.40;50.30;;;;;;4980992;28;20514;-63
2023/07/14 11:49:42;;;;;;;2.28;2.08;;;35.70;48.40;;;;;;4984668;28;20105;-63
2023/07/14 11:52:19;;;;;;;3.92;2.10;;;36.20;48.40;;;;;;4986955;28;20421;-63
2023/07/14 11:55:02;;;;;;;3.53;2.28;;;36.10;48.70;;;;;;4987433;28;20120;-62
2023/07/14 11:57:29;;;;;;;3.97;2.50;;;36.30;48.90;;;;;;4986628;28;20083;-63
2023/07/14 11:59:59;;;;;;;4.35;2.35;;;34.60;48.50;;;;;;4986798;28;20306;-62
2023/07/14 12:02:30;;;;;;;3.75;2.22;;;32.00;50.50;;;;;;4983703;28;20035;-62
2023/07/14 12:05:22;;;;;;;4.10;2.83;;;30.90;53.10;;;;;;4985764;28;20030;-62
2023/07/14 12:08:07;;;;;;;6.90;2.50;;;30.00;53.30;;;;;;4987010;28;20030;-62
2023/07/14 12:10:38;;;;;;;4.22;2.80;;;29.60;56.80;;;;;;4986564;28;20018;-62
2023/07/14 12:13:20;;;;;;;5.82;2.78;;;29.40;57.60;;;;;;4981129;28;20070;-62
2023/07/14 12:15:47;;;;;;;4.07;2.67;;;29.40;55.90;;;;;;4987090;28;20425;-62
2023/07/14 12:18:21;;;;;;;4.35;2.63;;;28.90;56.00;;;;;;4984211;28;20022;-62
2023/07/14 12:20:50;;;;;;;4.15;2.60;;;28.70;58.00;;;;;;4976014;28;20062;-62
2023/07/14 12:23:27;;;;;;;4.55;2.80;;;28.60;59.10;;;;;;5011665;28;20035;-62
2023/07/14 12:26:14;;;;;;;6.20;2.72;;;28.50;58.10;;;;;;5018726;28;20012;-61
2023/07/14 12:28:40;;;;;;;5.57;2.83;;;28.40;58.50;;;;;;4969099;28;20240;-61
2023/07/14 12:31:14;;;;;;;5.97;3.00;;;28.30;57.00;;;;;;4974849;28;20045;-61
2023/07/14 12:33:40;;;;;;;4.63;2.90;;;28.40;56.40;;;;;;4986672;28;20034;-61
2023/07/14 12:36:16;;;;;;;3.58;2.70;;;28.40;58.30;;;;;;4986769;28;20030;-61
2023/07/14 12:38:49;;;;;;;4.80;2.83;;;28.70;57.70;;;;;;4977770;28;20064;-61
2023/07/14 12:41:19;;;;;;;7.60;3.38;;;28.90;57.90;;;;;;4986339;28;20030;-61
2023/07/14 12:43:49;;;;;;;9.18;3.38;;;29.40;57.10;;;;;;4979002;28;20208;-61
2023/07/14 12:46:25;;;;;;;4.30;2.85;;;29.00;59.00;;;;;;4978756;28;20033;-61
2023/07/14 12:49:02;;;;;;;4.78;2.88;;;29.00;58.00;;;;;;4986698;28;20420;-61
2023/07/14 12:51:29;;;;;;;4.00;2.80;;;28.30;57.70;;;;;;4986001;28;20408;-61
2023/07/14 12:54:04;;;;;;;4.60;2.80;;;28.30;58.40;;;;;;4986139;28;20238;-61
2023/07/14 12:56:31;;;;;;;7.10;2.92;;;28.20;58.50;;;;;;4989696;28;20014;-61
2023/07/14 12:59:03;;;;;;;4.70;3.15;;;28.90;60.70;;;;;;5013478;28;20017;-61
2023/07/14 13:01:29;;;;;;;5.13;2.80;;;29.50;60.50;;;;;;5011191;28;20118;-61